createdAt,value
2022-08-25T00:00:17.930Z,23.20
2022-08-25T00:02:55.030Z,22.60
2022-08-25T00:05:27.284Z,24.93
2022-08-25T00:07:57.957Z,24.83
2022-08-25T00:10:27.004Z,23.93
2022-08-25T00:12:59.680Z,25.60
2022-08-25T00:15:29.027Z,24.60
2022-08-25T00:17:59.997Z,27.00
2022-08-25T00:20:30.478Z,22.17
2022-08-25T00:22:59.025Z,24.77
2022-08-25T00:25:30.308Z,25.53
2022-08-25T00:27:59.251Z,22.87
2022-08-25T00:30:30.763Z,23.70
2022-08-25T00:33:01.067Z,22.77
2022-08-25T00:35:29.311Z,24.63
2022-08-25T00:37:57.657Z,24.17
2022-08-25T00:40:27.708Z,26.10
2022-08-25T00:42:56.261Z,23.40
2022-08-25T00:45:29.569Z,22.83
2022-08-25T00:48:02.544Z,24.50
2022-08-25T00:50:35.075Z,26.03
2022-08-25T00:53:07.892Z,24.77
2022-08-25T00:55:39.848Z,23.90
2022-08-25T00:58:14.230Z,24.57
2022-08-25T01:00:46.128Z,25.00
2022-08-25T01:03:14.512Z,23.40
2022-08-25T01:05:45.523Z,22.87
2022-08-25T01:08:16.255Z,24.07
2022-08-25T01:10:46.591Z,24.90
2022-08-25T01:13:20.021Z,23.97
2022-08-25T01:15:50.336Z,23.27
2022-08-25T01:18:28.926Z,24.60
2022-08-25T01:21:02.971Z,23.27
2022-08-25T01:24:00.755Z,27.00
2022-08-25T01:26:58.150Z,25.60
2022-08-25T01:29:26.760Z,27.67
2022-08-25T01:31:57.823Z,26.77
2022-08-25T01:34:30.206Z,27.87
2022-08-25T01:37:01.069Z,36.13
2022-08-25T01:39:31.250Z,26.73
2022-08-25T01:42:19.141Z,26.93
2022-08-25T01:44:49.007Z,28.60
2022-08-25T01:47:17.171Z,30.03
2022-08-25T01:49:45.213Z,28.93
2022-08-25T01:52:20.455Z,31.07
2022-08-25T01:54:49.434Z,31.97
2022-08-25T01:57:17.444Z,33.10
2022-08-25T01:59:45.358Z,33.53
2022-08-25T02:02:13.486Z,31.60
2022-08-25T02:04:42.519Z,31.57
2022-08-25T02:07:13.998Z,33.47
2022-08-25T02:09:42.388Z,32.03
2022-08-25T02:12:11.274Z,31.17
2022-08-25T02:14:39.683Z,32.77
2022-08-25T02:17:11.805Z,32.87
2022-08-25T02:19:39.819Z,30.27
2022-08-25T02:22:07.992Z,32.17
2022-08-25T02:24:37.638Z,30.57
2022-08-25T02:27:08.775Z,31.40
2022-08-25T02:29:36.689Z,34.37
2022-08-25T02:32:05.610Z,33.93
2022-08-25T02:34:33.776Z,31.17
2022-08-25T02:37:02.191Z,32.70
2022-08-25T02:39:30.008Z,33.17
2022-08-25T02:42:00.014Z,35.10
2022-08-25T02:44:27.768Z,38.77
2022-08-25T02:46:55.767Z,43.73
2022-08-25T02:49:24.323Z,43.47
2022-08-25T02:51:52.150Z,40.53
2022-08-25T02:54:19.948Z,45.50
2022-08-25T02:56:48.949Z,44.77
2022-08-25T02:59:20.563Z,40.37
2022-08-25T03:01:49.512Z,44.60
2022-08-25T03:04:17.289Z,40.20
2022-08-25T03:06:45.499Z,39.17
2022-08-25T03:09:14.466Z,39.97
2022-08-25T03:11:42.448Z,40.67
2022-08-25T03:14:12.037Z,39.97
2022-08-25T03:16:46.359Z,38.97
2022-08-25T03:19:15.523Z,35.00
2022-08-25T03:21:46.891Z,42.33
2022-08-25T03:24:14.852Z,38.17
2022-08-25T03:26:53.714Z,38.23
2022-08-25T03:29:24.544Z,41.03
2022-08-25T03:31:54.959Z,41.07
2022-08-25T03:34:23.883Z,41.43
2022-08-25T03:36:53.735Z,37.63
2022-08-25T03:39:24.494Z,41.83
2022-08-25T03:41:53.719Z,38.60
2022-08-25T03:44:23.168Z,39.80
2022-08-25T03:46:53.602Z,38.47
2022-08-25T03:49:25.164Z,36.90
2022-08-25T03:51:55.575Z,37.50
2022-08-25T03:54:32.975Z,38.77
2022-08-25T03:57:03.388Z,36.50
2022-08-25T03:59:32.196Z,36.87
2022-08-25T04:02:01.904Z,35.87
2022-08-25T04:04:31.287Z,42.97
2022-08-25T04:06:59.828Z,38.43
2022-08-25T04:09:28.379Z,29.23
2022-08-25T04:12:00.070Z,27.07
2022-08-25T04:14:28.830Z,31.30
2022-08-25T04:16:57.215Z,31.93
2022-08-25T04:19:26.899Z,28.43
2022-08-25T04:21:56.666Z,28.93
2022-08-25T04:24:24.793Z,32.00
2022-08-25T04:26:53.341Z,35.17
2022-08-25T04:29:45.863Z,35.23
2022-08-25T04:32:40.975Z,33.77
2022-08-25T04:35:13.922Z,33.73
2022-08-25T04:37:41.815Z,36.00
2022-08-25T04:40:11.181Z,36.77
2022-08-25T04:42:42.764Z,38.53
2022-08-25T04:45:10.745Z,41.00
2022-08-25T04:47:39.606Z,37.03
2022-08-25T04:50:08.606Z,35.60
2022-08-25T04:52:57.116Z,29.00
2022-08-25T04:55:31.071Z,28.23
2022-08-25T04:58:21.173Z,25.40
2022-08-25T05:00:49.055Z,28.47
2022-08-25T05:03:20.964Z,28.17
2022-08-25T05:05:54.535Z,27.60
2022-08-25T05:08:24.292Z,29.77
2022-08-25T05:10:54.615Z,32.53
2022-08-25T05:13:24.045Z,31.93
2022-08-25T05:15:56.262Z,35.40
2022-08-25T05:18:29.110Z,39.03
2022-08-25T05:20:58.391Z,31.43
2022-08-25T05:23:27.794Z,35.00
2022-08-25T05:25:56.763Z,34.60
2022-08-25T05:28:26.310Z,39.17
2022-08-25T05:31:00.692Z,39.83
2022-08-25T05:33:30.516Z,40.28
2022-08-25T05:36:03.700Z,40.28
2022-08-25T05:38:33.359Z,57.30
2022-08-25T05:41:10.797Z,52.72
2022-08-25T05:43:42.766Z,55.50
2022-08-25T05:46:11.607Z,59.72
2022-08-25T05:48:40.421Z,59.85
2022-08-25T05:51:10.342Z,60.20
2022-08-25T05:53:41.686Z,59.45
2022-08-25T05:56:10.832Z,56.72
2022-08-25T05:58:42.558Z,58.30
2022-08-25T06:01:29.446Z,56.50
2022-08-25T06:03:57.866Z,57.78
2022-08-25T06:06:26.449Z,67.90
2022-08-25T06:08:55.734Z,65.93
2022-08-25T06:11:24.445Z,67.47
2022-08-25T06:13:52.285Z,85.28
2022-08-25T06:16:21.692Z,100.45
2022-08-25T06:18:49.584Z,80.80
2022-08-25T06:21:21.404Z,72.70
2022-08-25T06:23:50.372Z,82.78
2022-08-25T06:26:22.909Z,83.47
2022-08-25T06:28:51.515Z,85.55
2022-08-25T06:31:22.603Z,100.22
2022-08-25T06:33:52.136Z,96.35
2022-08-25T06:36:21.485Z,113.15
2022-08-25T06:38:49.727Z,150.00
2022-08-25T06:41:19.549Z,192.43
2022-08-25T06:43:56.706Z,228.88
2022-08-25T06:46:36.426Z,184.80
2022-08-25T06:49:06.440Z,194.50
2022-08-25T06:51:36.703Z,190.57
2022-08-25T06:54:05.378Z,210.77
2022-08-25T06:56:35.596Z,267.35
2022-08-25T06:59:06.807Z,281.67
2022-08-25T07:01:49.703Z,245.27
2022-08-25T07:04:18.230Z,231.75
2022-08-25T07:06:47.673Z,238.77
2022-08-25T07:09:25.339Z,234.75
2022-08-25T07:11:56.521Z,285.33
2022-08-25T07:14:27.019Z,293.08
2022-08-25T07:16:54.807Z,367.73
2022-08-25T07:19:22.741Z,265.15
2022-08-25T07:21:52.751Z,264.35
2022-08-25T07:24:20.535Z,248.90
2022-08-25T07:26:48.580Z,213.10
2022-08-25T07:29:20.021Z,180.30
2022-08-25T07:31:49.858Z,156.73
2022-08-25T07:34:35.615Z,136.82
2022-08-25T07:37:06.780Z,160.63
2022-08-25T07:39:35.872Z,185.10
2022-08-25T07:42:03.976Z,227.57
2022-08-25T07:44:32.895Z,160.68
2022-08-25T07:47:03.013Z,191.15
2022-08-25T07:49:35.811Z,177.98
2022-08-25T07:52:07.609Z,181.43
2022-08-25T07:54:38.440Z,191.82
2022-08-25T07:57:08.448Z,172.23
2022-08-25T07:59:39.250Z,137.30
2022-08-25T08:02:18.804Z,140.27
2022-08-25T08:04:48.885Z,130.27
2022-08-25T08:07:18.553Z,189.38
2022-08-25T08:09:46.963Z,146.95
2022-08-25T08:12:15.199Z,160.35
2022-08-25T08:14:45.064Z,149.40
2022-08-25T08:17:16.319Z,130.50
2022-08-25T08:19:45.509Z,141.32
2022-08-25T08:22:16.230Z,208.80
2022-08-25T08:24:56.222Z,346.40
2022-08-25T08:27:25.496Z,245.40
2022-08-25T08:29:53.826Z,256.05
2022-08-25T08:32:31.493Z,299.65
2022-08-25T08:35:17.859Z,223.95
2022-08-25T08:37:47.690Z,237.80
2022-08-25T08:40:21.904Z,287.02
2022-08-25T08:43:02.510Z,281.92
2022-08-25T08:45:35.748Z,184.88
2022-08-25T08:48:36.847Z,185.98
2022-08-25T08:51:17.594Z,155.27
2022-08-25T08:53:57.431Z,230.82
2022-08-25T08:56:30.668Z,298.52
2022-08-25T08:59:05.624Z,259.77
2022-08-25T09:01:36.831Z,212.73
2022-08-25T09:04:21.490Z,340.45
2022-08-25T09:06:53.509Z,249.07
2022-08-25T09:09:28.239Z,255.18
2022-08-25T09:12:18.220Z,279.77
2022-08-25T09:14:59.202Z,628.13
2022-08-25T09:17:54.870Z,286.90
2022-08-25T09:20:57.825Z,202.90
2022-08-25T09:23:44.186Z,204.73
2022-08-25T09:26:27.567Z,220.40
2022-08-25T09:29:03.405Z,267.67
2022-08-25T09:31:39.120Z,439.27
2022-08-25T09:34:12.750Z,270.10
2022-08-25T09:36:45.442Z,199.23
2022-08-25T09:39:14.163Z,245.23
2022-08-25T09:41:46.512Z,238.35
2022-08-25T09:44:26.234Z,261.65
2022-08-25T09:47:08.279Z,237.10
2022-08-25T09:49:41.515Z,256.50
2022-08-25T09:52:32.986Z,243.95
2022-08-25T09:55:21.847Z,217.98
2022-08-25T09:57:55.117Z,259.88
2022-08-25T10:00:30.744Z,351.05
2022-08-25T10:03:07.815Z,237.30
2022-08-25T10:05:43.411Z,236.57
2022-08-25T10:08:16.387Z,231.30
2022-08-25T10:10:57.406Z,270.63
2022-08-25T10:13:41.084Z,211.98
2022-08-25T10:16:20.652Z,273.65
2022-08-25T10:19:10.294Z,200.18
2022-08-25T10:21:41.482Z,220.30
2022-08-25T10:24:13.605Z,211.57
2022-08-25T10:26:53.351Z,210.90
2022-08-25T10:29:38.540Z,187.50
2022-08-25T10:32:17.415Z,171.07
2022-08-25T10:34:51.769Z,194.75
2022-08-25T10:37:32.666Z,249.07
2022-08-25T10:40:16.524Z,240.65
2022-08-25T10:42:58.515Z,242.75
2022-08-25T10:45:44.422Z,245.48
2022-08-25T10:48:36.446Z,264.98
2022-08-25T10:51:20.505Z,301.67
2022-08-25T10:54:02.249Z,259.92
2022-08-25T10:56:37.033Z,229.68
2022-08-25T10:59:22.290Z,235.63
2022-08-25T11:02:02.732Z,214.70
2022-08-25T11:04:38.276Z,212.60
2022-08-25T11:07:13.136Z,202.50
2022-08-25T11:09:46.317Z,178.70
2022-08-25T11:12:26.828Z,198.40
2022-08-25T11:14:58.870Z,209.30
2022-08-25T11:17:31.758Z,236.25
2022-08-25T11:20:19.120Z,219.52
2022-08-25T11:22:56.147Z,299.92
2022-08-25T11:25:30.426Z,252.88
2022-08-25T11:28:04.906Z,246.30
2022-08-25T11:30:33.602Z,215.25
2022-08-25T11:33:02.903Z,193.55
2022-08-25T11:35:35.375Z,187.45
2022-08-25T11:38:26.174Z,191.55
2022-08-25T11:41:11.263Z,180.00
2022-08-25T11:43:58.368Z,178.85
2022-08-25T11:46:45.622Z,167.80
2022-08-25T11:49:32.989Z,161.65
2022-08-25T11:52:03.094Z,184.98
2022-08-25T11:54:38.840Z,290.17
2022-08-25T11:57:25.827Z,268.88
2022-08-25T12:04:24.103Z,231.73
2022-08-25T12:07:19.860Z,199.45
2022-08-25T12:10:17.675Z,174.73
2022-08-25T12:13:14.573Z,183.18
2022-08-25T12:16:02.406Z,169.68
2022-08-25T12:18:45.966Z,171.48
2022-08-25T12:21:17.513Z,169.00
2022-08-25T12:23:52.824Z,166.73
2022-08-25T12:26:31.799Z,171.55
2022-08-25T12:29:09.599Z,164.98
2022-08-25T12:32:07.060Z,243.77
2022-08-25T12:34:49.797Z,175.10
2022-08-25T12:37:20.458Z,178.75
2022-08-25T12:40:00.574Z,176.52
2022-08-25T12:42:37.980Z,179.18
2022-08-25T12:45:15.051Z,198.27
2022-08-25T12:47:47.635Z,170.77
2022-08-25T12:50:43.625Z,192.98
2022-08-25T12:53:16.632Z,173.70
2022-08-25T12:55:50.125Z,199.60
2022-08-25T12:58:18.331Z,177.85
2022-08-25T13:01:35.385Z,163.25
2022-08-25T13:04:35.976Z,153.68
2022-08-25T13:07:19.904Z,158.90
2022-08-25T13:10:12.024Z,158.80
2022-08-25T13:12:48.670Z,156.43
2022-08-25T13:15:26.753Z,163.45
2022-08-25T13:17:54.899Z,145.90
2022-08-25T13:20:29.561Z,151.02
2022-08-25T13:23:01.694Z,177.23
2022-08-25T13:25:34.825Z,157.40
2022-08-25T13:28:11.133Z,166.98
2022-08-25T13:30:40.295Z,264.83
2022-08-25T13:33:20.331Z,210.25
2022-08-25T13:36:12.335Z,203.50
2022-08-25T13:38:41.097Z,203.57
2022-08-25T13:41:20.355Z,199.02
2022-08-25T13:43:49.182Z,196.43
2022-08-25T13:46:23.254Z,186.98
2022-08-25T13:48:52.155Z,206.35
2022-08-25T13:51:31.458Z,183.05
2022-08-25T13:54:04.113Z,188.95
2022-08-25T13:56:39.959Z,171.05
2022-08-25T13:59:22.212Z,168.98
2022-08-25T14:01:52.376Z,195.60
2022-08-25T14:04:32.084Z,160.90
2022-08-25T14:07:25.614Z,164.15
2022-08-25T14:09:56.496Z,165.40
2022-08-25T14:12:31.298Z,154.90
2022-08-25T14:15:01.014Z,148.43
2022-08-25T14:17:39.435Z,144.20
2022-08-25T14:20:19.251Z,162.60
2022-08-25T14:22:53.898Z,175.73
2022-08-25T14:25:21.973Z,167.95
2022-08-25T14:28:07.267Z,159.32
2022-08-25T14:30:51.822Z,154.65
2022-08-25T14:33:22.374Z,166.05
2022-08-25T14:35:54.559Z,181.25
2022-08-25T14:38:25.293Z,149.48
2022-08-25T14:40:54.167Z,146.57
2022-08-25T14:43:31.334Z,134.88
2022-08-25T14:46:00.058Z,131.75
2022-08-25T14:48:34.620Z,129.35
2022-08-25T14:51:05.423Z,142.70
2022-08-25T14:53:35.290Z,142.00
2022-08-25T14:56:09.260Z,133.82
2022-08-25T14:58:51.366Z,135.52
2022-08-25T15:01:29.556Z,155.40
2022-08-25T15:04:03.034Z,149.88
2022-08-25T15:06:31.719Z,138.65
2022-08-25T15:09:10.814Z,144.10
2022-08-25T15:11:41.580Z,166.63
2022-08-25T15:14:12.114Z,160.70
2022-08-25T15:16:43.725Z,146.82
2022-08-25T15:19:16.000Z,141.23
2022-08-25T15:21:46.210Z,145.70
2022-08-25T15:24:17.233Z,151.15
2022-08-25T15:29:23.318Z,196.77
2022-08-25T15:31:51.440Z,143.10
2022-08-25T15:34:19.650Z,142.30
2022-08-25T15:36:47.901Z,136.30
2022-08-25T15:39:18.053Z,130.43
2022-08-25T15:41:49.514Z,124.43
2022-08-25T15:44:17.937Z,164.65
2022-08-25T15:46:49.574Z,123.97
2022-08-25T15:49:24.043Z,126.97
2022-08-25T15:51:54.221Z,135.75
2022-08-25T15:54:26.779Z,133.02
2022-08-25T15:56:56.021Z,142.13
2022-08-25T15:59:25.199Z,162.02
2022-08-25T16:01:54.409Z,131.88
2022-08-25T16:04:22.949Z,121.22
2022-08-25T16:06:52.021Z,126.20
2022-08-25T16:09:22.907Z,117.68
2022-08-25T16:11:56.865Z,124.57
2022-08-25T16:14:25.876Z,131.20
2022-08-25T16:16:53.824Z,127.28
2022-08-25T16:19:26.435Z,129.35
2022-08-25T16:21:54.234Z,119.65
2022-08-25T16:24:23.234Z,116.72
2022-08-25T16:26:52.641Z,119.72
2022-08-25T16:29:23.600Z,110.43
2022-08-25T16:31:53.560Z,110.43
2022-08-25T16:34:28.606Z,103.47
2022-08-25T16:36:58.952Z,104.35
2022-08-25T16:39:26.867Z,98.32
2022-08-25T16:41:56.707Z,116.63
2022-08-25T16:44:25.758Z,117.78
2022-08-25T16:46:56.016Z,104.55
2022-08-25T16:49:25.530Z,106.97
2022-08-25T16:51:57.792Z,113.13
2022-08-25T16:54:44.101Z,107.80
2022-08-25T16:57:13.538Z,105.40
2022-08-25T16:59:43.937Z,102.35
2022-08-25T17:02:12.213Z,107.13
2022-08-25T17:04:41.473Z,101.18
2022-08-25T17:07:12.400Z,111.75
2022-08-25T17:09:41.128Z,86.57
2022-08-25T17:12:09.443Z,89.30
2022-08-25T17:14:39.893Z,94.40
2022-08-25T17:17:08.009Z,92.60
2022-08-25T17:19:36.164Z,84.47
2022-08-25T17:22:04.566Z,90.55
2022-08-25T17:24:34.544Z,87.03
2022-08-25T17:27:03.416Z,87.43
2022-08-25T17:29:31.387Z,91.25
2022-08-25T17:32:00.680Z,86.97
2022-08-25T17:34:30.310Z,84.07
2022-08-25T17:36:59.161Z,77.13
2022-08-25T17:39:28.166Z,77.75
2022-08-25T17:41:56.616Z,82.80
2022-08-25T17:44:24.851Z,82.88
2022-08-25T17:46:52.972Z,74.75
2022-08-25T17:49:26.405Z,79.45
2022-08-25T17:51:55.125Z,89.65
2022-08-25T17:54:22.874Z,92.82
2022-08-25T17:56:51.010Z,91.68
2022-08-25T17:59:19.697Z,99.32
2022-08-25T18:01:48.092Z,106.30
2022-08-25T18:04:17.172Z,103.80
2022-08-25T18:06:48.512Z,103.85
2022-08-25T18:09:17.759Z,108.80
2022-08-25T18:11:46.187Z,106.63
2022-08-25T18:14:16.531Z,107.88
2022-08-25T18:16:47.262Z,111.30
2022-08-25T18:19:17.583Z,114.03
2022-08-25T18:21:46.767Z,111.93
2022-08-25T18:24:15.501Z,117.57
2022-08-25T18:26:43.778Z,111.65
2022-08-25T18:29:13.348Z,118.93
2022-08-25T18:31:42.197Z,123.10
2022-08-25T18:34:11.568Z,128.38
2022-08-25T18:36:39.779Z,143.65
2022-08-25T18:39:28.749Z,146.73
2022-08-25T18:42:02.034Z,163.43
2022-08-25T18:44:31.554Z,167.88
2022-08-25T18:46:59.686Z,201.40
2022-08-25T18:49:35.491Z,216.73
2022-08-25T18:52:03.231Z,215.95
2022-08-25T18:54:33.489Z,218.52
2022-08-25T18:57:04.025Z,231.77
2022-08-25T18:59:31.973Z,240.73
2022-08-25T19:01:59.920Z,246.38
2022-08-25T19:04:32.058Z,281.27
2022-08-25T19:07:01.611Z,218.18
2022-08-25T19:09:30.567Z,214.23
2022-08-25T19:12:00.623Z,225.45
2022-08-25T19:14:29.118Z,196.20
2022-08-25T19:16:58.062Z,162.98
2022-08-25T19:19:25.949Z,314.00
2022-08-25T19:21:54.686Z,163.30
2022-08-25T19:24:22.983Z,192.23
2022-08-25T19:26:54.778Z,191.10
2022-08-25T19:29:24.920Z,208.55
2022-08-25T19:31:53.349Z,125.40
2022-08-25T19:34:28.306Z,124.38
2022-08-25T19:37:01.388Z,127.95
2022-08-25T19:39:30.705Z,124.30
2022-08-25T19:41:58.734Z,193.50
2022-08-25T19:44:30.040Z,159.55
2022-08-25T19:46:58.969Z,114.05
2022-08-25T19:49:31.685Z,124.97
2022-08-25T19:52:00.602Z,192.18
2022-08-25T19:54:31.956Z,109.47
2022-08-25T19:57:00.289Z,113.03
2022-08-25T19:59:40.499Z,371.77
2022-08-25T20:02:15.413Z,104.65
2022-08-25T20:04:49.513Z,116.72
2022-08-25T20:07:18.545Z,121.25
2022-08-25T20:10:02.264Z,141.05
2022-08-25T20:15:34.328Z,136.30
2022-08-25T20:18:05.944Z,111.18
2022-08-25T20:20:37.944Z,156.27
2022-08-25T20:23:25.171Z,95.55
2022-08-25T20:25:56.227Z,105.72
2022-08-25T20:28:25.559Z,85.43
2022-08-25T20:31:13.303Z,78.00
2022-08-25T20:33:41.640Z,126.68
2022-08-25T20:36:15.822Z,70.63
2022-08-25T20:38:45.067Z,192.95
2022-08-25T20:41:13.678Z,65.60
2022-08-25T20:43:42.527Z,67.60
2022-08-25T20:46:12.743Z,60.95
2022-08-25T20:48:40.850Z,57.00
2022-08-25T20:51:10.581Z,141.05
2022-08-25T20:53:42.562Z,56.58
2022-08-25T20:56:25.788Z,51.58
2022-08-25T20:58:53.554Z,48.88
2022-08-25T21:01:37.485Z,54.42
2022-08-25T21:04:06.597Z,44.92
2022-08-25T21:06:35.584Z,44.28
2022-08-25T21:09:05.717Z,43.70
2022-08-25T21:11:49.154Z,48.38
2022-08-25T21:14:18.283Z,41.70
2022-08-25T21:16:48.572Z,40.10
2022-08-25T21:19:26.302Z,39.22
2022-08-25T21:21:59.804Z,36.13
2022-08-25T21:24:29.386Z,34.83
2022-08-25T21:26:59.471Z,38.28
2022-08-25T21:29:32.677Z,34.00
2022-08-25T21:32:04.122Z,35.55
2022-08-25T21:34:32.708Z,41.95
2022-08-25T21:37:01.146Z,38.20
2022-08-25T21:39:34.047Z,32.55
2022-08-25T21:42:03.474Z,33.03
2022-08-25T21:44:32.191Z,31.70
2022-08-25T21:47:02.106Z,35.13
2022-08-25T21:49:37.804Z,35.03
2022-08-25T21:52:06.410Z,37.38
2022-08-25T21:54:34.826Z,34.88
2022-08-25T21:57:05.737Z,34.85
2022-08-25T21:59:54.607Z,33.35
2022-08-25T22:02:27.135Z,32.88
2022-08-25T22:04:59.916Z,33.80
2022-08-25T22:07:48.900Z,35.03
2022-08-25T22:10:24.173Z,33.05
2022-08-25T22:13:13.668Z,30.77
2022-08-25T22:15:41.717Z,30.50
2022-08-25T22:18:10.887Z,32.00
2022-08-25T22:20:39.386Z,32.77
2022-08-25T22:23:09.895Z,30.67
2022-08-25T22:25:48.688Z,29.48
2022-08-25T22:28:16.949Z,31.02
2022-08-25T22:30:45.169Z,32.00
2022-08-25T22:33:14.497Z,30.67
2022-08-25T22:35:42.666Z,28.27
2022-08-25T22:38:12.534Z,26.00
2022-08-25T22:40:42.158Z,25.53
2022-08-25T22:43:10.888Z,24.53
2022-08-25T22:45:39.320Z,25.37
2022-08-25T22:48:35.514Z,25.90
2022-08-25T22:51:07.898Z,26.03
2022-08-25T22:53:35.745Z,24.33
2022-08-25T22:56:04.014Z,25.17
2022-08-25T22:58:32.427Z,24.50
2022-08-25T23:01:02.296Z,24.27
2022-08-25T23:03:32.695Z,23.10
2022-08-25T23:06:00.849Z,24.00
2022-08-25T23:08:39.415Z,24.60
2022-08-25T23:11:10.009Z,26.40
2022-08-25T23:13:38.784Z,23.07
2022-08-25T23:16:11.417Z,24.33
2022-08-25T23:18:43.871Z,25.60
2022-08-25T23:21:35.165Z,24.73
2022-08-25T23:30:01.177Z,40.50
2022-08-25T23:32:29.516Z,26.07
2022-08-25T23:34:57.671Z,28.50
2022-08-25T23:37:28.115Z,26.23
2022-08-25T23:39:58.902Z,25.03
2022-08-25T23:42:27.420Z,26.37
2022-08-25T23:44:55.302Z,25.37
2022-08-25T23:47:23.661Z,27.27
2022-08-25T23:49:52.469Z,40.33
2022-08-25T23:52:21.027Z,25.43
2022-08-25T23:54:49.007Z,27.13
2022-08-25T23:57:18.774Z,28.13
2022-08-25T23:59:46.754Z,27.67
